Time,TemperatureF,DewpointF,PressureIn,WindDirection,WindDirectionDegrees,WindSpeedMPH,WindSpeedGustMPH,Humidity,HourlyPrecipIn,Conditions,Clouds,dailyrainin,SolarRadiationWatts/m^2,SoftwareType,DateUTC
2013-12-03 00:02:00,44.0,39.0,29.99,SSW,212,1.0,1.0,81,0.00,,,0.00,0.000000,,2013-12-03 05:02:00,
2013-12-03 00:10:00,45.0,40.0,29.99,NE,56,1.0,2.0,83,0.00,,,0.00,0.000000,,2013-12-03 05:10:00,
2013-12-03 00:43:00,45.0,40.0,29.99,NE,56,1.0,2.0,83,0.00,,,0.00,0.000000,,2013-12-03 05:43:00,
2013-12-03 00:53:00,45.0,40.0,29.99,NE,56,1.0,2.0,83,0.00,,,0.00,0.000000,,2013-12-03 05:53:00,
2013-12-03 01:02:00,45.0,40.0,29.99,NE,56,1.0,2.0,83,0.00,,,0.00,0.000000,,2013-12-03 06:02:00,
2013-12-03 01:10:00,42.0,40.0,29.98,SW,217,1.0,1.0,91,0.00,,,0.00,0.000000,,2013-12-03 06:10:00,
2013-12-03 01:42:00,42.0,40.0,29.98,SW,217,1.0,1.0,91,0.00,,,0.00,0.000000,,2013-12-03 06:42:00,
2013-12-03 01:53:00,42.0,40.0,29.98,SW,217,1.0,1.0,91,0.00,,,0.00,0.000000,,2013-12-03 06:53:00,
2013-12-03 02:02:00,42.0,40.0,29.98,SW,217,1.0,1.0,91,0.00,,,0.00,0.000000,,2013-12-03 07:02:00,
2013-12-03 02:10:00,42.0,39.0,29.98,WSW,253,1.0,2.0,90,0.00,,,0.00,0.000000,,2013-12-03 07:10:00,
2013-12-03 02:42:00,42.0,39.0,29.98,WSW,253,1.0,2.0,90,0.00,,,0.00,0.000000,,2013-12-03 07:42:00,
2013-12-03 02:52:00,42.0,39.0,29.98,WSW,253,1.0,2.0,90,0.00,,,0.00,0.000000,,2013-12-03 07:52:00,
2013-12-03 03:02:00,42.0,39.0,29.98,WSW,253,1.0,2.0,90,0.00,,,0.00,0.000000,,2013-12-03 08:02:00,
2013-12-03 03:10:00,43.0,40.0,29.98,SW,217,3.0,5.0,89,0.00,,,0.00,0.000000,,2013-12-03 08:10:00,
2013-12-03 03:42:00,43.0,40.0,29.98,SW,217,3.0,5.0,89,0.00,,,0.00,0.000000,,2013-12-03 08:42:00,
2013-12-03 03:53:00,43.0,40.0,29.98,SW,217,3.0,5.0,89,0.00,,,0.00,0.000000,,2013-12-03 08:53:00,
2013-12-03 04:02:00,43.0,40.0,29.98,SW,217,3.0,5.0,89,0.00,,,0.00,0.000000,,2013-12-03 09:02:00,
2013-12-03 04:10:00,45.0,42.0,29.98,SW,235,1.0,6.0,89,0.00,,,0.00,0.000000,,2013-12-03 09:10:00,
2013-12-03 04:43:00,45.0,42.0,29.98,SW,235,1.0,6.0,89,0.00,,,0.00,0.000000,,2013-12-03 09:43:00,
2013-12-03 04:54:00,45.0,42.0,29.98,SW,235,1.0,6.0,89,0.00,,,0.00,0.000000,,2013-12-03 09:54:00,
2013-12-03 05:03:00,45.0,42.0,29.98,SW,235,1.0,6.0,89,0.00,,,0.00,0.000000,,2013-12-03 10:03:00,
2013-12-03 05:10:00,44.0,40.0,29.99,SSE,162,1.0,2.0,87,0.00,,,0.00,0.000000,,2013-12-03 10:10:00,
2013-12-03 05:42:00,44.0,40.0,29.99,SSE,162,1.0,2.0,87,0.00,,,0.00,0.000000,,2013-12-03 10:42:00,
2013-12-03 05:53:00,44.0,40.0,29.99,SSE,162,1.0,2.0,87,0.00,,,0.00,0.000000,,2013-12-03 10:53:00,
2013-12-03 06:03:00,44.0,40.0,29.99,SSE,162,1.0,2.0,87,0.00,,,0.00,0.000000,,2013-12-03 11:03:00,
2013-12-03 06:10:00,46.0,43.0,30.00,SSW,199,2.0,3.0,89,0.00,,,0.00,0.000000,,2013-12-03 11:10:00,
2013-12-03 06:42:00,46.0,43.0,30.00,SSW,199,2.0,3.0,89,0.00,,,0.00,0.000000,,2013-12-03 11:42:00,
2013-12-03 06:52:00,46.0,43.0,30.00,SSW,199,2.0,3.0,89,0.00,,,0.00,0.000000,,2013-12-03 11:52:00,
2013-12-03 07:02:00,46.0,43.0,30.00,SSW,199,2.0,3.0,89,0.00,,,0.00,0.000000,,2013-12-03 12:02:00,
2013-12-03 07:10:00,46.0,45.0,30.01,SSE,148,0.0,3.0,98,0.00,,,0.00,0.000000,,2013-12-03 12:10:00,
2013-12-03 07:42:00,46.0,45.0,30.01,SSE,148,0.0,3.0,98,0.00,,,0.00,0.000000,,2013-12-03 12:42:00,
2013-12-03 07:52:00,46.0,45.0,30.01,SSE,148,0.0,3.0,98,0.00,,,0.00,0.000000,,2013-12-03 12:52:00,
2013-12-03 08:02:00,46.0,45.0,30.01,SSE,148,0.0,3.0,98,0.00,,,0.00,0.000000,,2013-12-03 13:02:00,
2013-12-03 08:10:00,47.0,47.0,30.02,SSW,198,2.0,3.0,99,0.00,,,0.00,5.000000,,2013-12-03 13:10:00,
2013-12-03 08:42:00,47.0,47.0,30.02,SSW,198,2.0,3.0,99,0.00,,,0.00,5.000000,,2013-12-03 13:42:00,
2013-12-03 08:52:00,47.0,47.0,30.02,SSW,198,2.0,3.0,99,0.00,,,0.00,5.000000,,2013-12-03 13:52:00,
2013-12-03 09:02:00,47.0,47.0,30.02,SSW,198,2.0,3.0,99,0.00,,,0.00,5.000000,,2013-12-03 14:02:00,
2013-12-03 09:10:00,50.0,47.0,30.03,SW,214,3.0,5.0,91,0.00,,,0.00,53.000000,,2013-12-03 14:10:00,
2013-12-03 09:42:00,50.0,47.0,30.03,SW,214,3.0,5.0,91,0.00,,,0.00,53.000000,,2013-12-03 14:42:00,
2013-12-03 09:52:00,50.0,47.0,30.03,SW,214,3.0,5.0,91,0.00,,,0.00,53.000000,,2013-12-03 14:52:00,
2013-12-03 10:02:00,50.0,47.0,30.03,SW,214,3.0,5.0,91,0.00,,,0.00,53.000000,,2013-12-03 15:02:00,
2013-12-03 10:10:00,51.0,47.0,30.06,SSW,207,3.0,8.0,86,0.00,,,0.00,107.000000,,2013-12-03 15:10:00,
2013-12-03 10:44:00,51.0,47.0,30.06,SSW,207,3.0,8.0,86,0.00,,,0.00,107.000000,,2013-12-03 15:44:00,
2013-12-03 10:54:00,51.0,47.0,30.06,SSW,207,3.0,8.0,86,0.00,,,0.00,107.000000,,2013-12-03 15:54:00,
2013-12-03 11:04:00,51.0,47.0,30.06,SSW,207,3.0,8.0,86,0.00,,,0.00,107.000000,,2013-12-03 16:04:00,
2013-12-03 11:10:00,57.0,50.0,30.05,SW,220,3.0,10.0,78,0.00,,,0.00,222.000000,,2013-12-03 16:10:00,
2013-12-03 11:43:00,57.0,50.0,30.05,SW,220,3.0,10.0,78,0.00,,,0.00,222.000000,,2013-12-03 16:43:00,
2013-12-03 11:53:00,57.0,50.0,30.05,SW,220,3.0,10.0,78,0.00,,,0.00,222.000000,,2013-12-03 16:53:00,
2013-12-03 12:02:00,57.0,50.0,30.05,SW,220,3.0,10.0,78,0.00,,,0.00,222.000000,,2013-12-03 17:02:00,
2013-12-03 12:10:00,60.0,52.0,30.03,SW,226,6.0,13.0,74,0.00,,,0.00,401.000000,,2013-12-03 17:10:00,
2013-12-03 12:42:00,60.0,52.0,30.03,SW,226,6.0,13.0,74,0.00,,,0.00,401.000000,,2013-12-03 17:42:00,
2013-12-03 12:53:00,60.0,52.0,30.03,SW,226,6.0,13.0,74,0.00,,,0.00,401.000000,,2013-12-03 17:53:00,
2013-12-03 13:02:00,60.0,52.0,30.03,SW,226,6.0,13.0,74,0.00,,,0.00,401.000000,,2013-12-03 18:02:00,
2013-12-03 13:10:00,61.0,51.0,30.01,SW,222,5.0,13.0,70,0.00,,,0.00,280.000000,,2013-12-03 18:10:00,
2013-12-03 13:42:00,61.0,51.0,30.01,SW,222,5.0,13.0,70,0.00,,,0.00,280.000000,,2013-12-03 18:42:00,
2013-12-03 13:53:00,61.0,51.0,30.01,SW,222,5.0,13.0,70,0.00,,,0.00,280.000000,,2013-12-03 18:53:00,
2013-12-03 14:02:00,61.0,51.0,30.01,SW,222,5.0,13.0,70,0.00,,,0.00,280.000000,,2013-12-03 19:02:00,
2013-12-03 14:10:00,61.0,49.0,29.99,SSE,165,5.0,12.0,65,0.00,,,0.00,230.000000,,2013-12-03 19:10:00,
2013-12-03 14:42:00,61.0,49.0,29.99,SSE,165,5.0,12.0,65,0.00,,,0.00,230.000000,,2013-12-03 19:42:00,
2013-12-03 14:52:00,61.0,49.0,29.99,SSE,165,5.0,12.0,65,0.00,,,0.00,230.000000,,2013-12-03 19:52:00,
2013-12-03 15:02:00,61.0,49.0,29.99,SSE,165,5.0,12.0,65,0.00,,,0.00,230.000000,,2013-12-03 20:02:00,
2013-12-03 15:10:00,61.0,50.0,30.00,South,177,4.0,11.0,68,0.00,,,0.00,185.000000,,2013-12-03 20:10:00,
2013-12-03 15:42:00,61.0,50.0,30.00,South,177,4.0,11.0,68,0.00,,,0.00,185.000000,,2013-12-03 20:42:00,
2013-12-03 15:53:00,61.0,50.0,30.00,South,177,4.0,11.0,68,0.00,,,0.00,185.000000,,2013-12-03 20:53:00,
2013-12-03 16:02:00,61.0,50.0,30.00,South,177,4.0,11.0,68,0.00,,,0.00,185.000000,,2013-12-03 21:02:00,
2013-12-03 16:10:00,61.0,50.0,30.01,South,173,3.0,8.0,68,0.00,,,0.00,110.000000,,2013-12-03 21:10:00,
2013-12-03 16:44:00,61.0,50.0,30.01,South,173,3.0,8.0,68,0.00,,,0.00,110.000000,,2013-12-03 21:44:00,
2013-12-03 16:54:00,61.0,50.0,30.01,South,173,3.0,8.0,68,0.00,,,0.00,110.000000,,2013-12-03 21:54:00,
2013-12-03 17:03:00,61.0,50.0,30.01,South,173,3.0,8.0,68,0.00,,,0.00,110.000000,,2013-12-03 22:03:00,
2013-12-03 17:10:00,58.0,51.0,30.02,South,176,3.0,7.0,78,0.00,,,0.00,35.000000,,2013-12-03 22:10:00,
2013-12-03 17:43:00,58.0,51.0,30.02,South,176,3.0,7.0,78,0.00,,,0.00,35.000000,,2013-12-03 22:43:00,
2013-12-03 17:53:00,58.0,51.0,30.02,South,176,3.0,7.0,78,0.00,,,0.00,35.000000,,2013-12-03 22:53:00,
2013-12-03 18:03:00,58.0,51.0,30.02,South,176,3.0,7.0,78,0.00,,,0.00,35.000000,,2013-12-03 23:03:00,
2013-12-03 18:10:00,55.0,49.0,30.02,WSW,258,1.0,10.0,80,0.00,,,0.00,0.000000,,2013-12-03 23:10:00,
2013-12-03 18:42:00,55.0,49.0,30.02,WSW,258,1.0,10.0,80,0.00,,,0.00,0.000000,,2013-12-03 23:42:00,
2013-12-03 18:52:00,55.0,49.0,30.02,WSW,258,1.0,10.0,80,0.00,,,0.00,0.000000,,2013-12-03 23:52:00,
2013-12-03 19:02:00,55.0,49.0,30.02,WSW,258,1.0,10.0,80,0.00,,,0.00,0.000000,,2013-12-04 00:02:00,
2013-12-03 19:10:00,55.0,50.0,30.04,SSE,164,2.0,9.0,82,0.00,,,0.00,0.000000,,2013-12-04 00:10:00,
2013-12-03 19:42:00,55.0,50.0,30.04,SSE,164,2.0,9.0,82,0.00,,,0.00,0.000000,,2013-12-04 00:42:00,
2013-12-03 19:52:00,55.0,50.0,30.04,SSE,164,2.0,9.0,82,0.00,,,0.00,0.000000,,2013-12-04 00:52:00,
2013-12-03 20:02:00,55.0,50.0,30.04,SSE,164,2.0,9.0,82,0.00,,,0.00,0.000000,,2013-12-04 01:02:00,
2013-12-03 20:10:00,55.0,51.0,30.05,South,184,5.0,11.0,86,0.00,,,0.00,0.000000,,2013-12-04 01:10:00,
2013-12-03 20:42:00,55.0,51.0,30.05,South,184,5.0,11.0,86,0.00,,,0.00,0.000000,,2013-12-04 01:42:00,
2013-12-03 20:52:00,55.0,51.0,30.05,South,184,5.0,11.0,86,0.00,,,0.00,0.000000,,2013-12-04 01:52:00,
2013-12-03 21:02:00,55.0,51.0,30.05,South,184,5.0,11.0,86,0.00,,,0.00,0.000000,,2013-12-04 02:02:00,
2013-12-03 21:10:00,53.0,50.0,30.05,South,169,1.0,9.0,88,0.00,,,0.00,0.000000,,2013-12-04 02:10:00,
2013-12-03 21:42:00,53.0,50.0,30.05,South,169,1.0,9.0,88,0.00,,,0.00,0.000000,,2013-12-04 02:42:00,
2013-12-03 21:52:00,53.0,50.0,30.05,South,169,1.0,9.0,88,0.00,,,0.00,0.000000,,2013-12-04 02:52:00,
2013-12-03 22:02:00,53.0,50.0,30.05,South,169,1.0,9.0,88,0.00,,,0.00,0.000000,,2013-12-04 03:02:00,
2013-12-03 22:10:00,52.0,50.0,30.06,SSE,147,1.0,6.0,94,0.00,,,0.00,0.000000,,2013-12-04 03:10:00,
2013-12-03 22:44:00,52.0,50.0,30.06,SSE,147,1.0,6.0,94,0.00,,,0.00,0.000000,,2013-12-04 03:44:00,
2013-12-03 22:54:00,52.0,50.0,30.06,SSE,147,1.0,6.0,94,0.00,,,0.00,0.000000,,2013-12-04 03:54:00,
2013-12-03 23:03:00,52.0,50.0,30.06,SSE,147,1.0,6.0,94,0.00,,,0.00,0.000000,,2013-12-04 04:03:00,
2013-12-03 23:10:00,52.0,51.0,30.06,SE,126,1.0,3.0,96,0.00,,,0.00,0.000000,,2013-12-04 04:10:00,
2013-12-03 23:43:00,52.0,51.0,30.06,SE,126,1.0,3.0,96,0.00,,,0.00,0.000000,,2013-12-04 04:43:00,
2013-12-03 23:52:00,52.0,51.0,30.06,SE,126,1.0,3.0,96,0.00,,,0.00,0.000000,,2013-12-04 04:52:00,